sensor_id;sensor_type;location;lat;lon;timestamp;temperature;humidity
6379;DHT22;3222;48.858;10.128;2023-04-03T00:01:12;4.60;99.90
6379;DHT22;3222;48.858;10.128;2023-04-03T00:03:37;4.50;99.90
6379;DHT22;3222;48.858;10.128;2023-04-03T00:06:04;4.40;99.90
6379;DHT22;3222;48.858;10.128;2023-04-03T00:08:32;4.30;99.90
6379;DHT22;3222;48.858;10.128;2023-04-03T00:10:58;4.30;99.90
6379;DHT22;3222;48.858;10.128;2023-04-03T00:13:24;4.20;99.90
6379;DHT22;3222;48.858;10.128;2023-04-03T00:15:50;4.20;99.90
6379;DHT22;3222;48.858;10.128;2023-04-03T00:18:16;4.20;99.90
6379;DHT22;3222;48.858;10.128;2023-04-03T00:20:42;4.30;99.90
6379;DHT22;3222;48.858;10.128;2023-04-03T00:23:08;4.30;99.90
6379;DHT22;3222;48.858;10.128;2023-04-03T00:25:34;4.20;99.90
6379;DHT22;3222;48.858;10.128;2023-04-03T00:28:00;4.30;99.90
6379;DHT22;3222;48.858;10.128;2023-04-03T00:30:26;4.30;99.90
6379;DHT22;3222;48.858;10.128;2023-04-03T00:32:52;4.20;99.90
6379;DHT22;3222;48.858;10.128;2023-04-03T00:35:20;4.10;99.90
6379;DHT22;3222;48.858;10.128;2023-04-03T00:37:46;4.20;99.90
6379;DHT22;3222;48.858;10.128;2023-04-03T00:40:13;4.10;99.90
6379;DHT22;3222;48.858;10.128;2023-04-03T00:42:41;4.00;99.90
6379;DHT22;3222;48.858;10.128;2023-04-03T00:47:36;4.00;99.90
6379;DHT22;3222;48.858;10.128;2023-04-03T00:50:03;4.00;99.90
6379;DHT22;3222;48.858;10.128;2023-04-03T00:52:30;4.00;99.90
6379;DHT22;3222;48.858;10.128;2023-04-03T00:55:03;4.00;99.90
6379;DHT22;3222;48.858;10.128;2023-04-03T00:57:31;4.00;99.90
6379;DHT22;3222;48.858;10.128;2023-04-03T01:00:06;4.00;99.90
6379;DHT22;3222;48.858;10.128;2023-04-03T01:02:34;4.00;99.90
6379;DHT22;3222;48.858;10.128;2023-04-03T01:05:00;4.00;99.90
6379;DHT22;3222;48.858;10.128;2023-04-03T01:07:29;4.00;99.90
6379;DHT22;3222;48.858;10.128;2023-04-03T01:09:57;3.90;99.90
6379;DHT22;3222;48.858;10.128;2023-04-03T01:12:29;3.90;99.90
6379;DHT22;3222;48.858;10.128;2023-04-03T01:14:58;3.90;99.90
6379;DHT22;3222;48.858;10.128;2023-04-03T01:17:28;4.00;99.90
6379;DHT22;3222;48.858;10.128;2023-04-03T01:28:20;3.90;99.90
6379;DHT22;3222;48.858;10.128;2023-04-03T01:33:50;3.90;99.90
6379;DHT22;3222;48.858;10.128;2023-04-03T01:36:25;4.00;99.90
6379;DHT22;3222;48.858;10.128;2023-04-03T01:38:52;4.10;99.90
6379;DHT22;3222;48.858;10.128;2023-04-03T01:41:18;4.00;99.90
6379;DHT22;3222;48.858;10.128;2023-04-03T01:43:45;4.00;99.90
6379;DHT22;3222;48.858;10.128;2023-04-03T01:46:12;4.00;99.90
6379;DHT22;3222;48.858;10.128;2023-04-03T01:48:37;3.90;99.90
6379;DHT22;3222;48.858;10.128;2023-04-03T01:51:03;3.80;99.90
6379;DHT22;3222;48.858;10.128;2023-04-03T01:53:29;4.00;99.90
6379;DHT22;3222;48.858;10.128;2023-04-03T01:55:54;4.00;99.90
6379;DHT22;3222;48.858;10.128;2023-04-03T01:58:20;3.90;99.90
6379;DHT22;3222;48.858;10.128;2023-04-03T02:00:47;3.80;99.90
6379;DHT22;3222;48.858;10.128;2023-04-03T02:03:13;4.10;99.90
6379;DHT22;3222;48.858;10.128;2023-04-03T02:05:40;4.20;99.90
6379;DHT22;3222;48.858;10.128;2023-04-03T02:08:06;4.30;99.90
6379;DHT22;3222;48.858;10.128;2023-04-03T02:10:32;4.10;99.90
6379;DHT22;3222;48.858;10.128;2023-04-03T02:12:57;4.00;99.90
6379;DHT22;3222;48.858;10.128;2023-04-03T02:15:24;3.90;99.90
6379;DHT22;3222;48.858;10.128;2023-04-03T02:17:50;3.80;99.90
6379;DHT22;3222;48.858;10.128;2023-04-03T02:20:16;3.80;99.90
6379;DHT22;3222;48.858;10.128;2023-04-03T02:22:41;3.80;99.90
6379;DHT22;3222;48.858;10.128;2023-04-03T02:25:07;3.90;99.90
6379;DHT22;3222;48.858;10.128;2023-04-03T02:27:33;3.90;99.90
6379;DHT22;3222;48.858;10.128;2023-04-03T02:29:59;4.00;99.90
6379;DHT22;3222;48.858;10.128;2023-04-03T02:32:25;4.00;99.90
6379;DHT22;3222;48.858;10.128;2023-04-03T02:34:51;4.00;99.90
6379;DHT22;3222;48.858;10.128;2023-04-03T02:37:17;4.00;99.90
6379;DHT22;3222;48.858;10.128;2023-04-03T02:39:45;3.90;99.90
6379;DHT22;3222;48.858;10.128;2023-04-03T02:42:10;3.90;99.90
6379;DHT22;3222;48.858;10.128;2023-04-03T02:44:36;3.80;99.90
6379;DHT22;3222;48.858;10.128;2023-04-03T02:47:02;3.90;99.90
6379;DHT22;3222;48.858;10.128;2023-04-03T02:49:28;3.80;99.90
6379;DHT22;3222;48.858;10.128;2023-04-03T02:51:53;3.80;99.90
6379;DHT22;3222;48.858;10.128;2023-04-03T02:54:19;3.70;99.90
6379;DHT22;3222;48.858;10.128;2023-04-03T02:56:50;3.80;99.90
6379;DHT22;3222;48.858;10.128;2023-04-03T02:59:16;3.80;99.90
6379;DHT22;3222;48.858;10.128;2023-04-03T03:01:42;3.80;99.90
6379;DHT22;3222;48.858;10.128;2023-04-03T03:04:08;4.00;99.90
6379;DHT22;3222;48.858;10.128;2023-04-03T03:06:34;4.00;99.90
6379;DHT22;3222;48.858;10.128;2023-04-03T03:08:59;3.80;99.90
6379;DHT22;3222;48.858;10.128;2023-04-03T03:11:25;3.70;99.90
6379;DHT22;3222;48.858;10.128;2023-04-03T03:13:52;3.70;99.90
6379;DHT22;3222;48.858;10.128;2023-04-03T03:16:17;3.60;99.90
6379;DHT22;3222;48.858;10.128;2023-04-03T03:18:43;3.60;99.90
6379;DHT22;3222;48.858;10.128;2023-04-03T03:21:10;3.60;99.90
6379;DHT22;3222;48.858;10.128;2023-04-03T03:23:36;3.70;99.90
6379;DHT22;3222;48.858;10.128;2023-04-03T03:26:04;3.60;99.90
6379;DHT22;3222;48.858;10.128;2023-04-03T03:28:30;3.60;99.90
6379;DHT22;3222;48.858;10.128;2023-04-03T03:30:58;3.70;99.90
6379;DHT22;3222;48.858;10.128;2023-04-03T03:33:24;3.70;99.90
6379;DHT22;3222;48.858;10.128;2023-04-03T03:35:51;3.70;99.90
6379;DHT22;3222;48.858;10.128;2023-04-03T03:38:17;3.60;99.90
6379;DHT22;3222;48.858;10.128;2023-04-03T03:40:43;3.70;99.90
6379;DHT22;3222;48.858;10.128;2023-04-03T03:43:08;3.70;99.90
6379;DHT22;3222;48.858;10.128;2023-04-03T03:45:34;3.60;99.90
6379;DHT22;3222;48.858;10.128;2023-04-03T03:48:01;4.00;99.90
6379;DHT22;3222;48.858;10.128;2023-04-03T03:50:27;3.90;99.90
6379;DHT22;3222;48.858;10.128;2023-04-03T03:52:53;3.70;99.90
6379;DHT22;3222;48.858;10.128;2023-04-03T03:55:18;3.60;99.90
6379;DHT22;3222;48.858;10.128;2023-04-03T03:57:48;3.60;99.90
6379;DHT22;3222;48.858;10.128;2023-04-03T04:00:14;3.60;99.90
6379;DHT22;3222;48.858;10.128;2023-04-03T04:02:49;3.50;99.90
6379;DHT22;3222;48.858;10.128;2023-04-03T04:05:18;3.70;99.90
6379;DHT22;3222;48.858;10.128;2023-04-03T04:07:44;3.60;99.90
6379;DHT22;3222;48.858;10.128;2023-04-03T04:10:10;3.60;99.90
6379;DHT22;3222;48.858;10.128;2023-04-03T04:12:36;3.50;99.90
6379;DHT22;3222;48.858;10.128;2023-04-03T04:15:02;3.40;99.90
6379;DHT22;3222;48.858;10.128;2023-04-03T04:17:28;3.50;99.90
6379;DHT22;3222;48.858;10.128;2023-04-03T04:19:55;3.40;99.90
6379;DHT22;3222;48.858;10.128;2023-04-03T04:22:21;3.40;99.90
6379;DHT22;3222;48.858;10.128;2023-04-03T04:24:47;3.30;99.90
6379;DHT22;3222;48.858;10.128;2023-04-03T04:27:13;3.30;99.90
6379;DHT22;3222;48.858;10.128;2023-04-03T04:29:39;3.20;99.90
6379;DHT22;3222;48.858;10.128;2023-04-03T04:32:06;3.50;99.90
6379;DHT22;3222;48.858;10.128;2023-04-03T04:34:32;3.40;99.90
6379;DHT22;3222;48.858;10.128;2023-04-03T04:36:59;3.30;99.90
6379;DHT22;3222;48.858;10.128;2023-04-03T04:39:26;3.20;99.90
6379;DHT22;3222;48.858;10.128;2023-04-03T04:41:54;3.20;99.90
6379;DHT22;3222;48.858;10.128;2023-04-03T04:44:20;3.10;99.90
6379;DHT22;3222;48.858;10.128;2023-04-03T04:46:46;3.10;99.90
6379;DHT22;3222;48.858;10.128;2023-04-03T04:49:11;3.10;99.90
6379;DHT22;3222;48.858;10.128;2023-04-03T04:51:37;3.10;99.90
6379;DHT22;3222;48.858;10.128;2023-04-03T04:54:03;3.10;99.90
6379;DHT22;3222;48.858;10.128;2023-04-03T04:56:29;3.10;99.90
6379;DHT22;3222;48.858;10.128;2023-04-03T04:58:55;3.10;99.90
6379;DHT22;3222;48.858;10.128;2023-04-03T05:01:22;3.10;99.90
6379;DHT22;3222;48.858;10.128;2023-04-03T05:04:00;3.00;99.90
6379;DHT22;3222;48.858;10.128;2023-04-03T05:06:26;3.10;99.90
6379;DHT22;3222;48.858;10.128;2023-04-03T05:08:53;3.10;99.90
6379;DHT22;3222;48.858;10.128;2023-04-03T05:11:20;3.10;99.90
6379;DHT22;3222;48.858;10.128;2023-04-03T05:13:49;3.00;99.90
6379;DHT22;3222;48.858;10.128;2023-04-03T05:16:16;3.00;99.90
6379;DHT22;3222;48.858;10.128;2023-04-03T05:18:41;3.00;99.90
6379;DHT22;3222;48.858;10.128;2023-04-03T05:21:11;3.10;99.90
6379;DHT22;3222;48.858;10.128;2023-04-03T05:23:37;3.10;99.90
6379;DHT22;3222;48.858;10.128;2023-04-03T05:26:03;3.10;99.90
6379;DHT22;3222;48.858;10.128;2023-04-03T05:28:30;3.10;99.90
6379;DHT22;3222;48.858;10.128;2023-04-03T05:30:57;3.10;99.90
6379;DHT22;3222;48.858;10.128;2023-04-03T05:33:27;3.10;99.90
6379;DHT22;3222;48.858;10.128;2023-04-03T05:35:55;3.20;99.90
6379;DHT22;3222;48.858;10.128;2023-04-03T05:38:25;3.10;99.90
6379;DHT22;3222;48.858;10.128;2023-04-03T05:40:52;3.10;99.90
6379;DHT22;3222;48.858;10.128;2023-04-03T05:43:17;3.20;99.90
6379;DHT22;3222;48.858;10.128;2023-04-03T05:45:43;3.20;99.90
6379;DHT22;3222;48.858;10.128;2023-04-03T05:48:09;3.10;99.90
6379;DHT22;3222;48.858;10.128;2023-04-03T05:50:37;3.10;99.90
6379;DHT22;3222;48.858;10.128;2023-04-03T05:53:07;3.20;99.90
6379;DHT22;3222;48.858;10.128;2023-04-03T05:55:36;3.10;99.90
6379;DHT22;3222;48.858;10.128;2023-04-03T05:58:02;3.20;99.90
6379;DHT22;3222;48.858;10.128;2023-04-03T06:00:27;3.20;99.90
6379;DHT22;3222;48.858;10.128;2023-04-03T06:02:59;3.20;99.90
6379;DHT22;3222;48.858;10.128;2023-04-03T06:05:25;3.10;99.90
6379;DHT22;3222;48.858;10.128;2023-04-03T06:07:51;3.20;99.90
6379;DHT22;3222;48.858;10.128;2023-04-03T06:10:17;3.10;99.90
6379;DHT22;3222;48.858;10.128;2023-04-03T06:12:43;3.10;99.90
6379;DHT22;3222;48.858;10.128;2023-04-03T06:15:10;3.20;99.90
6379;DHT22;3222;48.858;10.128;2023-04-03T06:17:39;3.20;99.90
6379;DHT22;3222;48.858;10.128;2023-04-03T06:20:05;3.30;99.90
6379;DHT22;3222;48.858;10.128;2023-04-03T06:22:30;3.30;99.90
6379;DHT22;3222;48.858;10.128;2023-04-03T06:24:57;3.20;99.90
6379;DHT22;3222;48.858;10.128;2023-04-03T06:27:23;3.20;99.90
6379;DHT22;3222;48.858;10.128;2023-04-03T06:29:49;3.30;99.90
6379;DHT22;3222;48.858;10.128;2023-04-03T06:32:15;3.40;99.90
6379;DHT22;3222;48.858;10.128;2023-04-03T06:34:41;3.30;99.90
6379;DHT22;3222;48.858;10.128;2023-04-03T06:37:25;3.20;99.90
6379;DHT22;3222;48.858;10.128;2023-04-03T06:39:51;3.20;99.90
6379;DHT22;3222;48.858;10.128;2023-04-03T06:42:17;3.10;99.90
6379;DHT22;3222;48.858;10.128;2023-04-03T06:44:53;3.20;99.90
6379;DHT22;3222;48.858;10.128;2023-04-03T06:47:19;3.20;99.90
6379;DHT22;3222;48.858;10.128;2023-04-03T06:49:45;3.20;99.90
6379;DHT22;3222;48.858;10.128;2023-04-03T06:52:11;3.20;99.90
6379;DHT22;3222;48.858;10.128;2023-04-03T06:54:38;3.30;99.90
6379;DHT22;3222;48.858;10.128;2023-04-03T06:57:04;3.20;99.90
6379;DHT22;3222;48.858;10.128;2023-04-03T06:59:29;3.30;99.90
6379;DHT22;3222;48.858;10.128;2023-04-03T07:01:56;3.30;99.90
6379;DHT22;3222;48.858;10.128;2023-04-03T07:04:21;3.30;99.90
6379;DHT22;3222;48.858;10.128;2023-04-03T07:06:47;3.20;99.90
6379;DHT22;3222;48.858;10.128;2023-04-03T07:09:14;3.20;99.90
6379;DHT22;3222;48.858;10.128;2023-04-03T07:11:40;3.30;99.90
6379;DHT22;3222;48.858;10.128;2023-04-03T07:14:06;3.30;99.90
6379;DHT22;3222;48.858;10.128;2023-04-03T07:16:34;3.30;99.90
6379;DHT22;3222;48.858;10.128;2023-04-03T07:19:00;3.60;99.90
6379;DHT22;3222;48.858;10.128;2023-04-03T07:21:27;3.50;99.90
6379;DHT22;3222;48.858;10.128;2023-04-03T07:23:53;3.30;99.90
6379;DHT22;3222;48.858;10.128;2023-04-03T07:26:19;3.30;99.90
6379;DHT22;3222;48.858;10.128;2023-04-03T07:28:46;3.40;99.90
6379;DHT22;3222;48.858;10.128;2023-04-03T07:31:14;3.30;99.90
6379;DHT22;3222;48.858;10.128;2023-04-03T07:33:41;3.50;99.90
6379;DHT22;3222;48.858;10.128;2023-04-03T07:36:09;3.50;99.90
6379;DHT22;3222;48.858;10.128;2023-04-03T07:38:35;3.40;99.90
6379;DHT22;3222;48.858;10.128;2023-04-03T07:41:01;3.50;99.90
6379;DHT22;3222;48.858;10.128;2023-04-03T07:43:27;3.40;99.90
6379;DHT22;3222;48.858;10.128;2023-04-03T07:45:53;3.50;99.90
6379;DHT22;3222;48.858;10.128;2023-04-03T07:48:24;3.60;99.90
6379;DHT22;3222;48.858;10.128;2023-04-03T07:50:50;3.50;99.90
6379;DHT22;3222;48.858;10.128;2023-04-03T07:53:17;3.40;99.90
6379;DHT22;3222;48.858;10.128;2023-04-03T07:55:43;3.40;99.90
6379;DHT22;3222;48.858;10.128;2023-04-03T07:58:12;3.30;99.90
6379;DHT22;3222;48.858;10.128;2023-04-03T08:00:40;3.40;99.90
6379;DHT22;3222;48.858;10.128;2023-04-03T08:03:07;3.40;99.90
6379;DHT22;3222;48.858;10.128;2023-04-03T08:05:37;3.50;99.90
6379;DHT22;3222;48.858;10.128;2023-04-03T08:08:03;3.50;99.90
6379;DHT22;3222;48.858;10.128;2023-04-03T08:10:30;3.50;99.90
6379;DHT22;3222;48.858;10.128;2023-04-03T08:12:55;3.40;99.90
6379;DHT22;3222;48.858;10.128;2023-04-03T08:15:21;3.60;99.90
6379;DHT22;3222;48.858;10.128;2023-04-03T08:17:47;3.70;99.90
6379;DHT22;3222;48.858;10.128;2023-04-03T08:20:13;3.60;99.90
6379;DHT22;3222;48.858;10.128;2023-04-03T08:22:39;3.50;99.90
6379;DHT22;3222;48.858;10.128;2023-04-03T08:25:05;3.50;99.90
6379;DHT22;3222;48.858;10.128;2023-04-03T08:27:31;3.80;99.90
6379;DHT22;3222;48.858;10.128;2023-04-03T08:29:56;3.80;99.90
6379;DHT22;3222;48.858;10.128;2023-04-03T08:32:22;3.80;99.90
6379;DHT22;3222;48.858;10.128;2023-04-03T08:34:48;3.80;99.90
6379;DHT22;3222;48.858;10.128;2023-04-03T08:37:14;3.70;99.90
6379;DHT22;3222;48.858;10.128;2023-04-03T08:39:42;3.60;99.90
6379;DHT22;3222;48.858;10.128;2023-04-03T08:42:26;3.60;99.90
6379;DHT22;3222;48.858;10.128;2023-04-03T08:47:53;3.70;99.90
6379;DHT22;3222;48.858;10.128;2023-04-03T08:50:29;3.60;99.90
6379;DHT22;3222;48.858;10.128;2023-04-03T08:52:57;3.70;99.90
6379;DHT22;3222;48.858;10.128;2023-04-03T08:55:32;3.70;99.90
6379;DHT22;3222;48.858;10.128;2023-04-03T08:58:16;3.70;99.90
6379;DHT22;3222;48.858;10.128;2023-04-03T09:03:16;3.60;99.90
6379;DHT22;3222;48.858;10.128;2023-04-03T09:05:53;3.90;99.90
6379;DHT22;3222;48.858;10.128;2023-04-03T09:14:03;3.70;99.90
6379;DHT22;3222;48.858;10.128;2023-04-03T09:16:58;3.90;99.90
6379;DHT22;3222;48.858;10.128;2023-04-03T09:19:43;3.90;99.90
6379;DHT22;3222;48.858;10.128;2023-04-03T09:22:21;4.00;99.90
6379;DHT22;3222;48.858;10.128;2023-04-03T09:24:55;3.90;99.90
6379;DHT22;3222;48.858;10.128;2023-04-03T09:27:23;3.90;99.90
6379;DHT22;3222;48.858;10.128;2023-04-03T09:29:49;3.90;99.90
6379;DHT22;3222;48.858;10.128;2023-04-03T09:32:32;4.00;99.90
6379;DHT22;3222;48.858;10.128;2023-04-03T09:38:22;4.00;99.90
6379;DHT22;3222;48.858;10.128;2023-04-03T09:41:13;4.00;99.90
6379;DHT22;3222;48.858;10.128;2023-04-03T09:43:52;4.00;99.90
6379;DHT22;3222;48.858;10.128;2023-04-03T09:46:33;4.10;99.90
6379;DHT22;3222;48.858;10.128;2023-04-03T09:49:05;4.00;99.90
6379;DHT22;3222;48.858;10.128;2023-04-03T09:51:31;4.00;99.90
6379;DHT22;3222;48.858;10.128;2023-04-03T09:53:57;4.00;99.90
6379;DHT22;3222;48.858;10.128;2023-04-03T09:56:32;4.10;99.90
6379;DHT22;3222;48.858;10.128;2023-04-03T10:04:18;4.10;99.90
6379;DHT22;3222;48.858;10.128;2023-04-03T10:06:53;4.20;99.90
6379;DHT22;3222;48.858;10.128;2023-04-03T10:09:30;4.30;99.90
6379;DHT22;3222;48.858;10.128;2023-04-03T10:12:08;4.30;99.90
6379;DHT22;3222;48.858;10.128;2023-04-03T10:14:55;4.40;99.90
6379;DHT22;3222;48.858;10.128;2023-04-03T10:17:42;4.30;99.90
6379;DHT22;3222;48.858;10.128;2023-04-03T10:20:27;4.20;99.90
6379;DHT22;3222;48.858;10.128;2023-04-03T10:25:42;4.40;99.90
6379;DHT22;3222;48.858;10.128;2023-04-03T10:28:17;4.30;99.90
6379;DHT22;3222;48.858;10.128;2023-04-03T10:31:02;4.30;99.90
6379;DHT22;3222;48.858;10.128;2023-04-03T10:33:49;4.30;99.90
6379;DHT22;3222;48.858;10.128;2023-04-03T10:41:40;4.30;99.90
6379;DHT22;3222;48.858;10.128;2023-04-03T10:47:34;4.30;99.90
6379;DHT22;3222;48.858;10.128;2023-04-03T10:58:45;4.40;99.90
6379;DHT22;3222;48.858;10.128;2023-04-03T11:01:19;4.30;99.90
6379;DHT22;3222;48.858;10.128;2023-04-03T11:03:49;4.30;99.90
6379;DHT22;3222;48.858;10.128;2023-04-03T11:06:19;4.30;99.90
6379;DHT22;3222;48.858;10.128;2023-04-03T11:08:53;4.60;99.90
6379;DHT22;3222;48.858;10.128;2023-04-03T11:11:26;4.50;99.90
6379;DHT22;3222;48.858;10.128;2023-04-03T11:14:11;4.50;99.90
6379;DHT22;3222;48.858;10.128;2023-04-03T11:16:45;4.50;99.90
6379;DHT22;3222;48.858;10.128;2023-04-03T11:19:18;4.50;99.90
6379;DHT22;3222;48.858;10.128;2023-04-03T11:24:43;4.60;99.90
6379;DHT22;3222;48.858;10.128;2023-04-03T11:27:23;4.60;99.90
6379;DHT22;3222;48.858;10.128;2023-04-03T11:29:50;4.50;99.90
6379;DHT22;3222;48.858;10.128;2023-04-03T11:32:29;4.70;99.90
6379;DHT22;3222;48.858;10.128;2023-04-03T11:35:01;4.80;99.90
6379;DHT22;3222;48.858;10.128;2023-04-03T11:37:42;4.70;99.90
6379;DHT22;3222;48.858;10.128;2023-04-03T11:43:18;4.80;99.90
6379;DHT22;3222;48.858;10.128;2023-04-03T11:45:49;4.80;99.90
6379;DHT22;3222;48.858;10.128;2023-04-03T11:50:48;4.80;99.90
6379;DHT22;3222;48.858;10.128;2023-04-03T11:55:44;5.00;99.90
6379;DHT22;3222;48.858;10.128;2023-04-03T11:58:18;5.00;99.90
6379;DHT22;3222;48.858;10.128;2023-04-03T12:16:23;5.30;99.90
6379;DHT22;3222;48.858;10.128;2023-04-03T12:26:41;5.10;99.90
6379;DHT22;3222;48.858;10.128;2023-04-03T12:37:07;5.10;99.90
6379;DHT22;3222;48.858;10.128;2023-04-03T12:40:10;5.10;99.90
6379;DHT22;3222;48.858;10.128;2023-04-03T12:45:25;5.30;99.90
6379;DHT22;3222;48.858;10.128;2023-04-03T12:47:54;5.20;99.90
6379;DHT22;3222;48.858;10.128;2023-04-03T12:50:31;5.10;99.90
6379;DHT22;3222;48.858;10.128;2023-04-03T12:53:05;5.10;99.90
6379;DHT22;3222;48.858;10.128;2023-04-03T12:55:32;5.00;99.90
6379;DHT22;3222;48.858;10.128;2023-04-03T12:58:26;5.00;99.90
6379;DHT22;3222;48.858;10.128;2023-04-03T13:01:25;5.10;99.90
6379;DHT22;3222;48.858;10.128;2023-04-03T13:03:56;5.10;99.90
6379;DHT22;3222;48.858;10.128;2023-04-03T13:06:37;5.00;99.90
6379;DHT22;3222;48.858;10.128;2023-04-03T13:09:04;5.00;99.90
6379;DHT22;3222;48.858;10.128;2023-04-03T13:11:35;5.10;99.90
6379;DHT22;3222;48.858;10.128;2023-04-03T13:14:04;5.20;99.90
6379;DHT22;3222;48.858;10.128;2023-04-03T13:16:31;5.20;99.90
6379;DHT22;3222;48.858;10.128;2023-04-03T13:18:57;5.30;99.90
6379;DHT22;3222;48.858;10.128;2023-04-03T13:21:29;5.10;99.90
6379;DHT22;3222;48.858;10.128;2023-04-03T13:23:58;5.00;99.90
6379;DHT22;3222;48.858;10.128;2023-04-03T13:26:28;5.00;99.90
6379;DHT22;3222;48.858;10.128;2023-04-03T13:28:59;5.10;99.90
6379;DHT22;3222;48.858;10.128;2023-04-03T13:31:29;5.30;99.90
6379;DHT22;3222;48.858;10.128;2023-04-03T13:34:02;5.20;99.90
6379;DHT22;3222;48.858;10.128;2023-04-03T13:36:33;5.20;99.90
6379;DHT22;3222;48.858;10.128;2023-04-03T13:39:06;5.30;99.90
6379;DHT22;3222;48.858;10.128;2023-04-03T13:41:52;5.20;99.90
6379;DHT22;3222;48.858;10.128;2023-04-03T13:46:51;5.00;99.90
6379;DHT22;3222;48.858;10.128;2023-04-03T13:51:48;5.10;99.90
6379;DHT22;3222;48.858;10.128;2023-04-03T13:54:20;5.30;99.90
6379;DHT22;3222;48.858;10.128;2023-04-03T13:56:53;5.40;99.90
6379;DHT22;3222;48.858;10.128;2023-04-03T13:59:29;5.40;99.90
6379;DHT22;3222;48.858;10.128;2023-04-03T14:02:20;5.60;99.90
6379;DHT22;3222;48.858;10.128;2023-04-03T14:04:56;5.50;99.90
6379;DHT22;3222;48.858;10.128;2023-04-03T14:07:26;5.50;99.90
6379;DHT22;3222;48.858;10.128;2023-04-03T14:09:52;5.70;99.90
6379;DHT22;3222;48.858;10.128;2023-04-03T14:12:21;5.60;99.90
6379;DHT22;3222;48.858;10.128;2023-04-03T14:14:49;5.50;99.90
6379;DHT22;3222;48.858;10.128;2023-04-03T14:17:24;5.40;99.90
6379;DHT22;3222;48.858;10.128;2023-04-03T14:19:50;5.40;99.90
6379;DHT22;3222;48.858;10.128;2023-04-03T14:22:26;5.50;99.90
6379;DHT22;3222;48.858;10.128;2023-04-03T14:24:52;5.70;99.90
6379;DHT22;3222;48.858;10.128;2023-04-03T14:27:26;5.80;99.90
6379;DHT22;3222;48.858;10.128;2023-04-03T14:29:55;5.80;99.90
6379;DHT22;3222;48.858;10.128;2023-04-03T14:32:22;5.90;99.90
6379;DHT22;3222;48.858;10.128;2023-04-03T14:34:50;5.90;99.90
6379;DHT22;3222;48.858;10.128;2023-04-03T14:37:20;5.90;99.90
6379;DHT22;3222;48.858;10.128;2023-04-03T14:39:48;6.10;99.90
6379;DHT22;3222;48.858;10.128;2023-04-03T14:42:22;6.10;99.90
6379;DHT22;3222;48.858;10.128;2023-04-03T14:44:48;6.10;99.90
6379;DHT22;3222;48.858;10.128;2023-04-03T14:47:17;6.00;99.90
6379;DHT22;3222;48.858;10.128;2023-04-03T14:49:44;5.90;99.90
6379;DHT22;3222;48.858;10.128;2023-04-03T14:54:43;5.60;99.90
6379;DHT22;3222;48.858;10.128;2023-04-03T14:57:11;5.60;99.90
6379;DHT22;3222;48.858;10.128;2023-04-03T14:59:38;5.80;99.90
6379;DHT22;3222;48.858;10.128;2023-04-03T15:04:48;6.00;99.90
6379;DHT22;3222;48.858;10.128;2023-04-03T15:07:13;5.90;99.90
6379;DHT22;3222;48.858;10.128;2023-04-03T15:09:39;6.00;99.90
6379;DHT22;3222;48.858;10.128;2023-04-03T15:12:04;5.90;99.90
6379;DHT22;3222;48.858;10.128;2023-04-03T15:14:30;5.80;99.90
6379;DHT22;3222;48.858;10.128;2023-04-03T15:16:56;5.70;99.90
6379;DHT22;3222;48.858;10.128;2023-04-03T15:19:23;5.70;99.90
6379;DHT22;3222;48.858;10.128;2023-04-03T15:21:49;6.00;99.90
6379;DHT22;3222;48.858;10.128;2023-04-03T15:24:14;6.00;99.90
6379;DHT22;3222;48.858;10.128;2023-04-03T15:26:40;6.00;99.90
6379;DHT22;3222;48.858;10.128;2023-04-03T15:29:07;6.00;99.90
6379;DHT22;3222;48.858;10.128;2023-04-03T15:31:33;6.10;99.90
6379;DHT22;3222;48.858;10.128;2023-04-03T15:33:59;6.00;99.90
6379;DHT22;3222;48.858;10.128;2023-04-03T15:36:25;6.00;99.90
6379;DHT22;3222;48.858;10.128;2023-04-03T15:38:51;5.90;99.90
6379;DHT22;3222;48.858;10.128;2023-04-03T15:41:17;5.90;99.90
6379;DHT22;3222;48.858;10.128;2023-04-03T15:43:42;5.90;99.90
6379;DHT22;3222;48.858;10.128;2023-04-03T15:46:08;5.90;99.90
6379;DHT22;3222;48.858;10.128;2023-04-03T15:48:36;5.80;99.90
6379;DHT22;3222;48.858;10.128;2023-04-03T15:51:02;5.80;99.90
6379;DHT22;3222;48.858;10.128;2023-04-03T15:53:28;5.80;99.90
6379;DHT22;3222;48.858;10.128;2023-04-03T15:55:54;5.70;99.90
6379;DHT22;3222;48.858;10.128;2023-04-03T15:58:20;5.60;99.90
6379;DHT22;3222;48.858;10.128;2023-04-03T16:00:45;5.50;99.90
6379;DHT22;3222;48.858;10.128;2023-04-03T16:03:16;5.50;99.90
6379;DHT22;3222;48.858;10.128;2023-04-03T16:05:42;5.40;99.90
6379;DHT22;3222;48.858;10.128;2023-04-03T16:08:08;5.40;99.90
6379;DHT22;3222;48.858;10.128;2023-04-03T16:10:37;5.50;99.90
6379;DHT22;3222;48.858;10.128;2023-04-03T16:13:04;5.50;99.90
6379;DHT22;3222;48.858;10.128;2023-04-03T16:15:33;5.50;99.90
6379;DHT22;3222;48.858;10.128;2023-04-03T16:18:00;5.60;99.90
6379;DHT22;3222;48.858;10.128;2023-04-03T16:20:26;5.70;99.90
6379;DHT22;3222;48.858;10.128;2023-04-03T16:22:52;5.70;99.90
6379;DHT22;3222;48.858;10.128;2023-04-03T16:25:18;5.70;99.90
6379;DHT22;3222;48.858;10.128;2023-04-03T16:27:43;5.60;99.90
6379;DHT22;3222;48.858;10.128;2023-04-03T16:30:10;5.50;99.90
6379;DHT22;3222;48.858;10.128;2023-04-03T16:32:37;5.50;99.90
6379;DHT22;3222;48.858;10.128;2023-04-03T16:35:04;5.40;99.90
6379;DHT22;3222;48.858;10.128;2023-04-03T16:37:30;5.50;99.90
6379;DHT22;3222;48.858;10.128;2023-04-03T16:39:55;5.40;99.90
6379;DHT22;3222;48.858;10.128;2023-04-03T16:42:24;5.30;99.90
6379;DHT22;3222;48.858;10.128;2023-04-03T16:44:49;5.30;99.90
6379;DHT22;3222;48.858;10.128;2023-04-03T16:47:15;5.30;99.90
6379;DHT22;3222;48.858;10.128;2023-04-03T16:49:45;5.20;99.90
6379;DHT22;3222;48.858;10.128;2023-04-03T16:52:10;5.10;99.90
6379;DHT22;3222;48.858;10.128;2023-04-03T16:54:36;5.10;99.90
6379;DHT22;3222;48.858;10.128;2023-04-03T16:57:02;5.00;99.90
6379;DHT22;3222;48.858;10.128;2023-04-03T16:59:28;5.00;99.90
6379;DHT22;3222;48.858;10.128;2023-04-03T17:01:53;5.00;99.90
6379;DHT22;3222;48.858;10.128;2023-04-03T17:04:19;5.00;99.90
6379;DHT22;3222;48.858;10.128;2023-04-03T17:06:45;5.00;99.90
6379;DHT22;3222;48.858;10.128;2023-04-03T17:09:10;5.20;99.90
6379;DHT22;3222;48.858;10.128;2023-04-03T17:11:37;5.20;99.90
6379;DHT22;3222;48.858;10.128;2023-04-03T17:14:04;5.00;99.90
6379;DHT22;3222;48.858;10.128;2023-04-03T17:16:30;4.90;99.90
6379;DHT22;3222;48.858;10.128;2023-04-03T17:18:56;5.00;99.90
6379;DHT22;3222;48.858;10.128;2023-04-03T17:21:22;5.00;99.90
6379;DHT22;3222;48.858;10.128;2023-04-03T17:23:54;5.00;99.90
6379;DHT22;3222;48.858;10.128;2023-04-03T17:26:23;5.10;99.90
6379;DHT22;3222;48.858;10.128;2023-04-03T17:28:49;5.10;99.90
6379;DHT22;3222;48.858;10.128;2023-04-03T17:31:15;5.10;99.90
6379;DHT22;3222;48.858;10.128;2023-04-03T17:33:40;5.10;99.90
6379;DHT22;3222;48.858;10.128;2023-04-03T17:36:06;5.00;99.90
6379;DHT22;3222;48.858;10.128;2023-04-03T17:38:32;5.00;99.90
6379;DHT22;3222;48.858;10.128;2023-04-03T17:40:59;4.90;99.90
6379;DHT22;3222;48.858;10.128;2023-04-03T17:43:26;4.90;99.90
6379;DHT22;3222;48.858;10.128;2023-04-03T17:45:52;4.90;99.90
6379;DHT22;3222;48.858;10.128;2023-04-03T17:48:18;4.80;99.90
6379;DHT22;3222;48.858;10.128;2023-04-03T17:50:44;4.90;99.90
6379;DHT22;3222;48.858;10.128;2023-04-03T17:53:10;4.90;99.90
6379;DHT22;3222;48.858;10.128;2023-04-03T17:55:37;4.90;99.90
6379;DHT22;3222;48.858;10.128;2023-04-03T17:58:04;4.80;99.90
6379;DHT22;3222;48.858;10.128;2023-04-03T18:00:29;4.80;99.90